Time;durP1;ratioP1;P1;durP2;ratioP2;P2;SDS_P1;SDS_P2;PMS_P1;PMS_P2;Temp;Humidity;BMP_temperature;BMP_pressure;BME280_temperature;BME280_humidity;BME280_pressure;Samples;Min_cycle;Max_cycle;Signal;HPM_P1;HPM_P2
2022/02/17 00:01:04;;;;;;;11.47;2.93;;;27.70;57.30;;;;;;5033962;28;20212;-78
2022/02/17 00:03:33;;;;;;;9.37;2.47;;;27.90;56.40;;;;;;5032029;28;20197;-80
2022/02/17 00:06:00;;;;;;;8.17;3.13;;;27.80;55.00;;;;;;5033352;28;20207;-79
2022/02/17 00:08:28;;;;;;;7.80;2.63;;;27.90;55.80;;;;;;5033535;28;20303;-78
2022/02/17 00:10:55;;;;;;;11.00;3.30;;;28.20;55.50;;;;;;5034265;28;20275;-83
2022/02/17 00:13:22;;;;;;;11.23;4.07;;;28.40;55.20;;;;;;5033618;28;20254;-78
2022/02/17 00:15:50;;;;;;;12.30;4.10;;;28.50;54.50;;;;;;5032830;28;20635;-78
2022/02/17 00:18:21;;;;;;;8.70;3.10;;;28.80;54.20;;;;;;5033456;28;20180;-79
2022/02/17 00:21:13;;;;;;;9.10;2.77;;;28.80;55.00;;;;;;5034017;28;20181;-86
2022/02/17 00:23:50;;;;;;;13.87;3.43;;;28.50;54.50;;;;;;5035645;28;20179;-86
2022/02/17 00:26:21;;;;;;;12.73;3.30;;;28.40;55.70;;;;;;5034449;28;20839;-81
2022/02/17 00:28:48;;;;;;;9.30;2.70;;;28.70;55.00;;;;;;5034476;28;20181;-84
2022/02/17 00:31:15;;;;;;;18.77;6.13;;;28.70;54.90;;;;;;5035192;28;20639;-82
2022/02/17 00:33:55;;;;;;;11.00;5.60;;;29.00;54.80;;;;;;5030219;28;20531;-84
2022/02/17 00:36:26;;;;;;;13.13;3.20;;;29.30;54.00;;;;;;5033401;28;20207;-82
2022/02/17 00:38:58;;;;;;;5.40;2.20;;;29.50;53.40;;;;;;5038267;28;20165;-86
2022/02/17 00:41:26;;;;;;;9.23;2.70;;;29.70;52.30;;;;;;5036430;28;20248;-83
2022/02/17 00:43:54;;;;;;;8.90;2.83;;;29.60;51.60;;;;;;5036231;28;20180;-83
2022/02/17 00:46:21;;;;;;;6.43;2.43;;;29.60;52.10;;;;;;5033504;28;20208;-79
2022/02/17 00:48:48;;;;;;;10.27;2.73;;;29.80;52.10;;;;;;5034179;28;20222;-88
2022/02/17 00:51:16;;;;;;;7.93;2.67;;;29.90;51.40;;;;;;5033608;28;20184;-79
2022/02/17 00:53:43;;;;;;;7.53;2.77;;;30.00;50.90;;;;;;5026733;28;20562;-87
2022/02/17 00:56:13;;;;;;;12.17;2.77;;;30.20;50.90;;;;;;5033735;28;20199;-84
2022/02/17 00:58:41;;;;;;;11.50;2.83;;;30.30;50.60;;;;;;5033882;28;20252;-77
2022/02/17 01:01:08;;;;;;;10.93;2.95;;;30.40;50.40;;;;;;5033015;28;20547;-80
2022/02/17 01:03:35;;;;;;;10.18;2.80;;;30.80;50.00;;;;;;5032969;28;20192;-84
2022/02/17 01:06:03;;;;;;;12.57;2.50;;;31.10;48.80;;;;;;5033704;28;20220;-81
2022/02/17 01:08:30;;;;;;;10.40;2.80;;;31.00;48.60;;;;;;5031831;28;20184;-85
2022/02/17 01:10:58;;;;;;;9.20;2.60;;;30.80;48.90;;;;;;5033375;28;20283;-84
2022/02/17 01:13:27;;;;;;;7.40;2.30;;;30.80;49.30;;;;;;5033244;28;20176;-81
2022/02/17 01:15:54;;;;;;;9.32;2.28;;;30.70;49.40;;;;;;5033116;28;20176;-83
2022/02/17 01:18:22;;;;;;;6.70;2.40;;;30.80;48.90;;;;;;5033243;28;20195;-84
2022/02/17 01:20:50;;;;;;;7.97;2.40;;;31.00;48.50;;;;;;5032360;28;20203;-86
2022/02/17 01:23:17;;;;;;;8.73;2.87;;;31.20;48.30;;;;;;5031373;28;20207;-86
2022/02/17 01:25:47;;;;;;;13.35;2.97;;;31.30;48.00;;;;;;5025724;28;20351;-83
2022/02/17 01:28:18;;;;;;;9.15;2.55;;;31.40;47.70;;;;;;5029282;28;20187;-87
2022/02/17 01:30:46;;;;;;;11.38;3.20;;;31.30;47.50;;;;;;5031103;28;20184;-77
2022/02/17 01:33:13;;;;;;;15.68;2.85;;;31.70;47.30;;;;;;5031998;28;20173;-81
2022/02/17 01:35:45;;;;;;;11.25;2.92;;;31.00;48.50;;;;;;5034177;28;20204;-85
2022/02/17 01:38:14;;;;;;;11.77;3.08;;;31.70;47.40;;;;;;5031958;28;20196;-84
2022/02/17 01:40:44;;;;;;;7.95;3.10;;;32.20;46.00;;;;;;5026298;28;20650;-79
2022/02/17 01:43:22;;;;;;;12.65;3.95;;;31.80;45.50;;;;;;5087898;27;20929;-82
2022/02/17 01:45:50;;;;;;;11.98;2.75;;;32.30;44.30;;;;;;5087216;28;20189;-86
2022/02/17 01:48:21;;;;;;;10.00;2.22;;;32.20;45.50;;;;;;5087244;28;20213;-86
2022/02/17 01:50:48;;;;;;;12.15;2.95;;;32.50;44.20;;;;;;5086766;28;20178;-86
2022/02/17 01:53:16;;;;;;;6.70;2.45;;;32.50;44.00;;;;;;5086656;28;20178;-86
2022/02/17 01:55:46;;;;;;;9.57;3.03;;;32.70;44.30;;;;;;5088932;28;20174;-89
2022/02/17 01:58:15;;;;;;;6.72;2.33;;;32.80;43.10;;;;;;5084951;28;20278;-84
2022/02/17 02:00:46;;;;;;;8.48;2.60;;;32.80;42.50;;;;;;5084846;28;20179;-89
2022/02/17 02:03:15;;;;;;;7.20;2.88;;;32.60;43.10;;;;;;5084268;28;20712;-84
2022/02/17 02:05:45;;;;;;;14.90;3.33;;;32.80;44.90;;;;;;5088835;28;20258;-87
2022/02/17 02:08:12;;;;;;;13.27;2.75;;;32.90;46.40;;;;;;5084695;28;20644;-84
2022/02/17 02:10:40;;;;;;;12.00;3.75;;;33.00;44.90;;;;;;5084955;28;20251;-78
2022/02/17 02:13:07;;;;;;;14.35;3.30;;;32.70;48.50;;;;;;5086535;28;20534;-78
2022/02/17 02:15:52;;;;;;;11.63;5.18;;;32.70;48.30;;;;;;5083075;27;20641;-83
2022/02/17 02:18:21;;;;;;;12.75;4.78;;;32.90;48.80;;;;;;5083986;28;20183;-87
2022/02/17 02:20:51;;;;;;;12.13;3.95;;;33.30;48.00;;;;;;5087957;28;20217;-89
2022/02/17 02:23:20;;;;;;;11.70;3.60;;;32.90;48.60;;;;;;5085021;28;20332;-82
2022/02/17 02:25:51;;;;;;;12.05;3.90;;;33.20;47.90;;;;;;5087430;28;20178;-85
2022/02/17 02:28:29;;;;;;;10.68;3.90;;;33.20;47.60;;;;;;5085276;28;20212;-82
2022/02/17 02:30:58;;;;;;;10.48;3.78;;;32.80;49.30;;;;;;5085709;28;20642;-81
2022/02/17 02:33:26;;;;;;;8.55;3.38;;;33.10;49.00;;;;;;5082294;28;20185;-85
2022/02/17 02:35:54;;;;;;;18.55;4.00;;;33.00;48.20;;;;;;5087800;28;20265;-86
2022/02/17 02:38:22;;;;;;;11.15;3.65;;;32.90;48.80;;;;;;5087351;28;20193;-87
2022/02/17 02:40:50;;;;;;;12.23;3.00;;;32.70;49.20;;;;;;5085277;28;20174;-83
2022/02/17 02:43:28;;;;;;;16.52;3.42;;;32.80;48.30;;;;;;5087911;28;20276;-88
2022/02/17 02:46:02;;;;;;;9.52;3.42;;;32.70;48.30;;;;;;5087711;28;20283;-92
2022/02/17 02:48:39;;;;;;;12.65;2.95;;;31.90;50.20;;;;;;5087844;28;21649;-90
2022/02/17 02:51:07;;;;;;;12.80;3.30;;;32.20;50.20;;;;;;5088482;28;20546;-83
2022/02/17 02:53:37;;;;;;;10.05;3.17;;;32.50;50.00;;;;;;5080916;28;20183;-84
2022/02/17 02:56:09;;;;;;;11.70;3.28;;;32.80;49.00;;;;;;5072624;28;20175;-86
2022/02/17 02:58:36;;;;;;;10.35;3.05;;;32.80;48.50;;;;;;5071325;28;20183;-85
2022/02/17 03:01:14;;;;;;;14.00;3.78;;;32.70;48.60;;;;;;5072796;28;20176;-88
2022/02/17 03:03:52;;;;;;;;;;;;;;;;;;;;;
2022/02/17 03:06:20;;;;;;;9.07;3.60;;;32.30;49.80;;;;;;5072420;28;20175;-83
2022/02/17 03:08:49;;;;;;;11.85;3.45;;;32.10;50.60;;;;;;5074319;28;20233;-82
2022/02/17 03:11:36;;;;;;;12.30;3.60;;;32.40;49.70;;;;;;5071967;28;20191;-84
2022/02/17 03:14:09;;;;;;;11.10;3.42;;;32.60;49.30;;;;;;5075890;28;20236;-87
2022/02/17 03:16:43;;;;;;;8.13;2.97;;;32.60;49.20;;;;;;5071437;28;20190;-86
2022/02/17 03:19:25;;;;;;;20.85;3.60;;;32.50;49.50;;;;;;5067887;28;20190;-86
2022/02/17 03:21:56;;;;;;;8.98;3.10;;;32.70;48.60;;;;;;5075768;28;20252;-87
2022/02/17 03:24:23;;;;;;;16.02;3.35;;;32.60;49.20;;;;;;5076053;28;20543;-89
2022/02/17 03:26:52;;;;;;;16.85;4.13;;;32.40;50.20;;;;;;5073054;28;20232;-87
2022/02/17 03:29:29;;;;;;;8.30;2.90;;;32.30;49.90;;;;;;5070000;28;20638;-84
2022/02/17 03:32:00;;;;;;;12.02;3.38;;;32.40;49.70;;;;;;5074023;28;20178;-84
2022/02/17 03:34:28;;;;;;;6.88;2.53;;;32.50;49.60;;;;;;5072597;28;20242;-89
2022/02/17 03:36:56;;;;;;;12.82;3.53;;;32.50;49.80;;;;;;5071251;28;20240;-80
2022/02/17 03:39:23;;;;;;;16.20;3.10;;;32.50;49.80;;;;;;5067621;28;20185;-81
2022/02/17 03:41:50;;;;;;;13.65;3.50;;;32.30;50.40;;;;;;5069833;28;20246;-79
2022/02/17 03:44:18;;;;;;;13.55;3.55;;;32.10;51.00;;;;;;5068828;28;20668;-79
2022/02/17 03:46:48;;;;;;;13.00;2.90;;;32.50;50.90;;;;;;5066233;28;20187;-83
2022/02/17 03:49:16;;;;;;;13.73;4.07;;;32.10;51.70;;;;;;5065777;28;20186;-83
2022/02/17 03:51:44;;;;;;;11.23;3.40;;;31.90;51.70;;;;;;5073749;28;20650;-80
2022/02/17 03:54:11;;;;;;;12.60;3.25;;;31.80;52.10;;;;;;5072035;28;20243;-81
2022/02/17 03:56:42;;;;;;;10.45;3.33;;;32.50;51.30;;;;;;5067762;28;20225;-82
2022/02/17 03:59:21;;;;;;;9.98;3.72;;;32.60;50.70;;;;;;5075737;28;20266;-85
2022/02/17 04:02:26;;;;;;;7.80;4.10;;;32.60;50.30;;;;;;5073041;28;20332;-83
2022/02/17 04:04:57;;;;;;;10.82;4.15;;;32.70;50.50;;;;;;5050777;28;20196;-87
2022/02/17 04:07:30;;;;;;;17.27;3.65;;;32.30;51.20;;;;;;5059892;28;20200;-84
2022/02/17 04:09:58;;;;;;;13.98;3.17;;;32.50;50.60;;;;;;5080673;28;20171;-83
2022/02/17 04:12:28;;;;;;;12.73;3.17;;;32.80;50.00;;;;;;5080029;28;20261;-85
2022/02/17 04:14:55;;;;;;;8.63;2.90;;;33.50;48.40;;;;;;5080925;28;20175;-85
2022/02/17 04:17:31;;;;;;;14.13;3.45;;;32.80;49.10;;;;;;5078245;28;20171;-86
2022/02/17 04:20:05;;;;;;;10.75;2.63;;;32.80;49.40;;;;;;5070532;28;20213;-86
2022/02/17 04:22:33;;;;;;;10.70;3.40;;;32.90;48.60;;;;;;5071918;28;20608;-83
2022/02/17 04:25:00;;;;;;;9.15;3.05;;;32.80;49.40;;;;;;5072011;28;20254;-83
2022/02/17 04:27:28;;;;;;;10.98;3.30;;;32.30;50.60;;;;;;5071672;28;20229;-80
2022/02/17 04:29:55;;;;;;;9.15;2.78;;;32.80;49.50;;;;;;5070152;28;20191;-80
2022/02/17 04:32:23;;;;;;;19.00;3.72;;;33.20;48.60;;;;;;5073247;28;20186;-84
2022/02/17 04:34:56;;;;;;;14.05;3.78;;;33.70;46.30;;;;;;5071219;28;20194;-86
2022/02/17 04:37:27;;;;;;;9.38;2.75;;;34.10;45.70;;;;;;5072606;28;20187;-81
2022/02/17 04:40:00;;;;;;;10.02;2.70;;;33.90;46.20;;;;;;5072894;28;20179;-87
2022/02/17 04:42:28;;;;;;;12.85;3.33;;;33.90;46.00;;;;;;5074637;28;20594;-83
2022/02/17 04:44:56;;;;;;;15.57;3.08;;;33.90;46.00;;;;;;5071466;28;20217;-82
2022/02/17 04:47:24;;;;;;;10.40;2.97;;;33.90;45.60;;;;;;5072407;28;20175;-76
2022/02/17 04:49:51;;;;;;;11.73;3.05;;;34.20;45.30;;;;;;5071571;28;20167;-86
2022/02/17 04:52:19;;;;;;;7.53;2.90;;;34.70;44.90;;;;;;5071828;28;20182;-83
2022/02/17 04:54:46;;;;;;;12.55;3.50;;;34.60;45.20;;;;;;5072182;28;20189;-83
2022/02/17 04:57:13;;;;;;;8.60;3.30;;;35.00;44.40;;;;;;5073714;28;20171;-81
2022/02/17 04:59:41;;;;;;;14.65;3.15;;;34.90;44.70;;;;;;5071545;28;20182;-83
2022/02/17 05:02:08;;;;;;;10.57;2.70;;;35.10;44.00;;;;;;5072819;28;20629;-81
2022/02/17 05:04:36;;;;;;;7.75;3.08;;;34.00;46.60;;;;;;5070708;28;20273;-76
2022/02/17 05:07:04;;;;;;;13.77;4.00;;;34.20;46.20;;;;;;5070458;28;20550;-79
2022/02/17 05:09:31;;;;;;;10.95;2.85;;;33.70;47.30;;;;;;5072397;28;20183;-81
2022/02/17 05:11:58;;;;;;;9.63;2.75;;;33.30;48.10;;;;;;5057127;28;20257;-84
2022/02/17 05:14:26;;;;;;;11.82;2.97;;;33.80;47.90;;;;;;5061300;28;20172;-77
2022/02/17 05:16:53;;;;;;;9.13;3.15;;;33.80;47.30;;;;;;5071940;28;20178;-87
2022/02/17 05:19:21;;;;;;;7.40;2.80;;;34.50;45.90;;;;;;5064989;28;20222;-81
2022/02/17 05:21:48;;;;;;;9.32;2.97;;;34.90;44.40;;;;;;5071597;28;20658;-84
2022/02/17 05:24:15;;;;;;;6.97;2.90;;;35.30;43.90;;;;;;5071678;28;20187;-84
2022/02/17 05:26:43;;;;;;;10.60;2.85;;;34.90;44.90;;;;;;5070326;28;20653;-80
2022/02/17 05:29:10;;;;;;;9.00;2.70;;;34.80;43.90;;;;;;5067862;28;20183;-78
2022/02/17 05:31:37;;;;;;;11.95;3.00;;;34.60;44.60;;;;;;5069943;28;20187;-75
2022/02/17 05:34:06;;;;;;;9.43;2.58;;;34.80;43.60;;;;;;5072085;28;20625;-78
2022/02/17 05:36:35;;;;;;;11.95;3.88;;;33.90;44.90;;;;;;5071841;28;20198;-81
2022/02/17 05:39:03;;;;;;;14.00;3.85;;;33.80;45.70;;;;;;5072091;28;20637;-79
2022/02/17 05:41:31;;;;;;;11.98;3.42;;;33.90;44.80;;;;;;5069995;28;20235;-84
2022/02/17 05:43:58;;;;;;;7.78;2.83;;;34.00;44.40;;;;;;5067318;28;20195;-83
2022/02/17 05:46:26;;;;;;;9.88;2.78;;;34.60;43.50;;;;;;5074285;28;20661;-84
2022/02/17 05:48:58;;;;;;;9.73;2.70;;;33.90;44.40;;;;;;5072057;28;20523;-83
2022/02/17 05:51:31;;;;;;;8.35;2.58;;;34.40;43.80;;;;;;5064191;28;20193;-89
2022/02/17 05:54:01;;;;;;;12.85;4.00;;;34.60;44.00;;;;;;5073591;28;20171;-84
2022/02/17 05:56:28;;;;;;;11.40;3.13;;;34.80;43.40;;;;;;5072330;28;20274;-81
2022/02/17 05:58:56;;;;;;;9.88;3.00;;;34.80;43.50;;;;;;5069938;28;20648;-81
2022/02/17 06:01:23;;;;;;;12.00;3.92;;;35.10;43.50;;;;;;5069814;28;20225;-81
2022/02/17 06:03:50;;;;;;;10.38;3.22;;;35.10;42.80;;;;;;5067777;28;20757;-83
2022/02/17 06:06:18;;;;;;;11.52;2.85;;;34.80;43.90;;;;;;5072047;28;20186;-76
2022/02/17 06:08:45;;;;;;;11.57;2.65;;;33.80;45.30;;;;;;5067906;28;20185;-83
2022/02/17 06:11:12;;;;;;;10.15;3.30;;;32.90;47.00;;;;;;5071280;28;20176;-83
2022/02/17 06:13:39;;;;;;;16.58;3.20;;;33.00;47.60;;;;;;5070910;28;20682;-79
2022/02/17 06:16:07;;;;;;;14.32;3.05;;;32.10;49.60;;;;;;5067537;28;20175;-80
2022/02/17 06:18:34;;;;;;;12.85;4.38;;;31.50;51.00;;;;;;5069740;28;20191;-80
2022/02/17 06:21:02;;;;;;;10.35;3.60;;;30.80;53.10;;;;;;5068900;28;20541;-82
2022/02/17 06:23:30;;;;;;;12.23;3.28;;;30.30;54.80;;;;;;5070520;28;20199;-82
2022/02/17 06:25:57;;;;;;;14.02;3.70;;;29.90;56.20;;;;;;5071015;28;20422;-80
2022/02/17 06:28:26;;;;;;;11.25;2.60;;;29.80;56.30;;;;;;5065859;28;20274;-85
2022/02/17 06:30:53;;;;;;;15.13;3.13;;;29.80;56.40;;;;;;5076008;28;20216;-84
2022/02/17 06:33:20;;;;;;;10.50;2.83;;;29.50;56.90;;;;;;5068190;28;20547;-78
2022/02/17 06:35:48;;;;;;;9.90;2.60;;;29.30;57.50;;;;;;5073095;28;20183;-80
2022/02/17 06:38:15;;;;;;;13.90;3.60;;;29.40;57.40;;;;;;5073511;28;20254;-76
2022/02/17 06:40:43;;;;;;;11.10;2.70;;;29.20;58.10;;;;;;5074168;28;20186;-78
2022/02/17 06:43:13;;;;;;;15.40;3.37;;;28.80;59.10;;;;;;5073928;28;20293;-82
2022/02/17 06:45:42;;;;;;;10.97;2.73;;;28.60;60.20;;;;;;5074268;28;20175;-76
2022/02/17 06:48:10;;;;;;;13.10;2.80;;;28.50;60.20;;;;;;5075056;28;20183;-78
2022/02/17 06:50:37;;;;;;;10.17;2.83;;;28.30;60.20;;;;;;5073766;28;20625;-77
2022/02/17 06:53:07;;;;;;;13.50;2.47;;;28.30;60.70;;;;;;5076641;28;20182;-78
2022/02/17 06:55:34;;;;;;;13.10;3.00;;;28.40;59.90;;;;;;5087920;28;20187;-79
2022/02/17 06:58:02;;;;;;;10.27;2.73;;;28.20;59.20;;;;;;5080683;28;20179;-81
2022/02/17 07:00:30;;;;;;;10.13;3.43;;;28.20;59.70;;;;;;5073134;28;20615;-78
2022/02/17 07:02:58;;;;;;;14.90;4.67;;;28.10;59.80;;;;;;5070659;28;20215;-78
2022/02/17 07:05:26;;;;;;;14.13;4.07;;;27.90;60.30;;;;;;5073976;28;20183;-83
2022/02/17 07:07:57;;;;;;;15.47;3.43;;;27.90;60.80;;;;;;5070530;28;20175;-86
2022/02/17 07:13:10;;;;;;;13.83;3.10;;;27.80;60.80;;;;;;5070905;28;20190;-79
2022/02/17 07:15:38;;;;;;;10.10;3.07;;;27.70;61.00;;;;;;5073913;28;20209;-75
2022/02/17 07:18:07;;;;;;;16.80;3.40;;;27.70;61.20;;;;;;5074229;28;20172;-78
2022/02/17 07:20:38;;;;;;;12.37;2.90;;;27.70;60.80;;;;;;5073674;28;20179;-76
2022/02/17 07:23:05;;;;;;;13.70;2.83;;;27.50;61.40;;;;;;5073372;28;20210;-75
2022/02/17 07:25:32;;;;;;;15.50;2.90;;;27.30;62.50;;;;;;5068518;28;20495;-80
2022/02/17 07:28:00;;;;;;;11.03;3.40;;;27.30;63.70;;;;;;5066709;28;20211;-80
2022/02/17 07:30:27;;;;;;;16.70;3.47;;;27.10;64.70;;;;;;5074565;28;20254;-81
2022/02/17 07:32:56;;;;;;;13.13;3.43;;;27.10;66.10;;;;;;5073463;28;20229;-79
2022/02/17 07:35:23;;;;;;;12.27;3.43;;;27.00;69.70;;;;;;5073809;28;20179;-80
2022/02/17 07:37:50;;;;;;;15.20;3.20;;;27.00;68.90;;;;;;5072559;28;20179;-80
2022/02/17 07:40:18;;;;;;;13.80;3.30;;;26.90;69.50;;;;;;5073159;28;21830;-80
2022/02/17 07:42:45;;;;;;;14.23;3.23;;;26.90;70.00;;;;;;5073215;28;20223;-82
2022/02/17 07:45:14;;;;;;;17.40;3.90;;;26.90;70.10;;;;;;5073873;28;20179;-81
2022/02/17 07:47:49;;;;;;;17.70;3.47;;;26.90;70.00;;;;;;5074008;28;20701;-86
2022/02/17 07:50:18;;;;;;;11.53;3.30;;;26.80;70.50;;;;;;5073517;28;20178;-85
2022/02/17 07:52:46;;;;;;;17.93;3.63;;;26.80;71.60;;;;;;5073580;28;20175;-80
2022/02/17 07:55:14;;;;;;;17.60;3.20;;;26.50;72.70;;;;;;5073286;28;20179;-77
2022/02/17 07:57:42;;;;;;;11.67;2.87;;;26.30;73.00;;;;;;5073013;28;20180;-77
2022/02/17 08:00:13;;;;;;;9.53;2.87;;;25.80;71.60;;;;;;5071230;28;21204;-74
2022/02/17 08:02:42;;;;;;;9.07;2.33;;;25.50;70.70;;;;;;5073589;28;20681;-77
2022/02/17 08:05:12;;;;;;;4.67;1.60;;;25.00;68.70;;;;;;5072947;28;20183;-72
2022/02/17 08:07:40;;;;;;;3.33;1.40;;;25.00;64.30;;;;;;5071318;28;20538;-75
2022/02/17 08:10:08;;;;;;;7.27;1.40;;;25.00;61.20;;;;;;5073451;28;20179;-74
2022/02/17 08:12:43;;;;;;;4.20;1.13;;;24.90;59.10;;;;;;5071676;28;20218;-74
2022/02/17 08:15:11;;;;;;;4.57;1.33;;;24.90;58.40;;;;;;5072264;28;20183;-75
2022/02/17 08:17:39;;;;;;;8.03;2.00;;;24.80;59.80;;;;;;5069014;28;20167;-76
2022/02/17 08:20:07;;;;;;;9.67;1.83;;;24.80;63.40;;;;;;5072178;28;20178;-75
2022/02/17 08:22:35;;;;;;;4.10;1.40;;;24.80;64.10;;;;;;5069742;28;20225;-76
2022/02/17 08:25:03;;;;;;;4.00;1.70;;;24.80;59.50;;;;;;5071602;28;20242;-75
2022/02/17 08:27:31;;;;;;;2.80;1.50;;;25.00;61.30;;;;;;5070096;28;20207;-75
2022/02/17 08:29:58;;;;;;;4.70;1.27;;;25.20;59.50;;;;;;5066413;28;20177;-76
2022/02/17 08:32:25;;;;;;;3.27;1.20;;;25.40;60.60;;;;;;5071604;28;20210;-76
2022/02/17 08:34:53;;;;;;;4.37;1.50;;;25.40;60.10;;;;;;5070303;28;20262;-77
2022/02/17 08:37:20;;;;;;;3.47;1.50;;;25.30;61.30;;;;;;5071282;28;20261;-79
2022/02/17 08:39:47;;;;;;;5.23;1.43;;;25.30;62.80;;;;;;5064482;28;20221;-78
2022/02/17 08:42:15;;;;;;;2.93;1.53;;;25.30;61.60;;;;;;5071113;28;20704;-80
2022/02/17 08:44:42;;;;;;;5.23;1.47;;;25.30;60.60;;;;;;5072286;28;20224;-79
2022/02/17 08:47:10;;;;;;;6.23;1.70;;;25.20;59.90;;;;;;5070012;28;20240;-80
2022/02/17 08:49:37;;;;;;;3.03;1.30;;;25.10;60.50;;;;;;5071857;28;20175;-80
2022/02/17 08:52:05;;;;;;;5.83;1.83;;;25.00;62.10;;;;;;5071242;28;20591;-83
2022/02/17 08:54:32;;;;;;;3.93;2.00;;;25.10;61.80;;;;;;5072269;28;20550;-89
2022/02/17 08:56:59;;;;;;;5.03;2.03;;;25.20;61.60;;;;;;5071799;28;20183;-85
2022/02/17 08:59:27;;;;;;;6.73;1.80;;;25.20;63.60;;;;;;5071854;28;20228;-81
2022/02/17 09:01:54;;;;;;;4.23;1.47;;;25.30;61.20;;;;;;5070264;28;20296;-81
2022/02/17 09:04:23;;;;;;;8.57;2.20;;;25.30;61.70;;;;;;5071566;28;20579;-81
2022/02/17 09:06:50;;;;;;;11.50;4.70;;;25.40;59.60;;;;;;5070403;28;20171;-77
2022/02/17 09:09:18;;;;;;;6.50;2.30;;;25.70;57.90;;;;;;5067732;28;20278;-81
2022/02/17 09:11:45;;;;;;;3.10;1.60;;;25.90;57.50;;;;;;5068699;28;20302;-78
2022/02/17 09:14:13;;;;;;;3.53;1.57;;;26.00;52.20;;;;;;5070076;28;20221;-77
2022/02/17 09:16:40;;;;;;;4.97;1.60;;;26.10;51.60;;;;;;5071605;28;20175;-80
2022/02/17 09:19:08;;;;;;;3.10;1.50;;;26.30;51.50;;;;;;5070053;28;20183;-85
2022/02/17 09:21:36;;;;;;;3.93;1.47;;;26.30;50.60;;;;;;5070116;28;20207;-88
2022/02/17 09:24:05;;;;;;;3.00;1.40;;;26.40;51.20;;;;;;5070679;28;20234;-79
2022/02/17 09:26:33;;;;;;;3.90;1.43;;;26.40;51.90;;;;;;5069743;28;20661;-75
2022/02/17 09:29:01;;;;;;;4.47;1.70;;;26.30;54.70;;;;;;5064830;28;20210;-80
2022/02/17 09:31:29;;;;;;;4.07;1.80;;;26.00;57.50;;;;;;5070114;28;20309;-72
2022/02/17 09:33:56;;;;;;;5.33;1.70;;;25.80;60.20;;;;;;5069916;28;20182;-79
2022/02/17 09:36:28;;;;;;;4.97;2.03;;;25.60;61.50;;;;;;5067409;28;20183;-74
2022/02/17 09:38:57;;;;;;;7.47;1.93;;;25.40;62.60;;;;;;5062869;28;20214;-77
2022/02/17 09:41:25;;;;;;;5.23;1.70;;;25.20;63.60;;;;;;5068250;28;20210;-75
2022/02/17 09:43:53;;;;;;;6.03;1.73;;;25.00;64.60;;;;;;5070588;28;20174;-73
2022/02/17 09:46:22;;;;;;;12.50;2.63;;;24.90;67.00;;;;;;5069560;28;20183;-74
2022/02/17 09:49:00;;;;;;;4.50;2.10;;;24.70;70.20;;;;;;5070276;28;20179;-74
2022/02/17 09:51:30;;;;;;;6.47;2.30;;;24.50;71.50;;;;;;5071080;28;20676;-75
2022/02/17 09:53:57;;;;;;;6.67;2.30;;;24.30;70.30;;;;;;5068006;28;20206;-77
2022/02/17 09:56:26;;;;;;;9.00;1.77;;;24.10;71.90;;;;;;5068975;28;20175;-75
2022/02/17 09:58:54;;;;;;;7.63;1.90;;;24.00;72.80;;;;;;5068886;28;20188;-74
2022/02/17 10:01:27;;;;;;;11.07;3.17;;;23.80;73.50;;;;;;5069513;28;20178;-73
2022/02/17 10:04:18;;;;;;;9.47;2.97;;;23.60;77.20;;;;;;5070638;28;20186;-74
2022/02/17 10:07:00;;;;;;;4.60;2.50;;;23.50;77.70;;;;;;5073567;28;20184;-75
2022/02/17 10:09:48;;;;;;;6.40;2.20;;;23.30;77.90;;;;;;5072865;28;20270;-75
2022/02/17 10:12:15;;;;;;;3.47;2.00;;;23.30;73.30;;;;;;5072365;28;20183;-75
2022/02/17 10:14:45;;;;;;;8.40;1.83;;;23.40;73.70;;;;;;5075025;28;20266;-74
2022/02/17 10:17:14;;;;;;;5.33;1.90;;;23.50;70.80;;;;;;5074591;28;20183;-74
2022/02/17 10:19:52;;;;;;;5.20;2.03;;;23.40;71.50;;;;;;5073633;28;20180;-73
2022/02/17 10:22:30;;;;;;;5.93;1.97;;;23.50;71.20;;;;;;5074060;28;20295;-74
2022/02/17 10:24:57;;;;;;;2.97;1.83;;;23.50;75.90;;;;;;5070618;28;20206;-75
2022/02/17 10:27:26;;;;;;;6.97;2.37;;;23.20;76.10;;;;;;5073643;28;20222;-74
2022/02/17 10:30:09;;;;;;;4.33;2.40;;;23.50;69.40;;;;;;5074771;28;20175;-74
2022/02/17 10:32:51;;;;;;;5.73;2.20;;;23.50;75.90;;;;;;5069644;28;20661;-73
2022/02/17 10:35:19;;;;;;;6.37;2.03;;;23.30;76.50;;;;;;5068710;28;20511;-73
2022/02/17 10:37:55;;;;;;;4.50;1.90;;;23.20;77.70;;;;;;5064436;28;20176;-74
2022/02/17 10:40:32;;;;;;;6.50;1.93;;;23.20;75.70;;;;;;5071427;28;20178;-76
2022/02/17 10:43:05;;;;;;;4.77;1.40;;;23.30;73.50;;;;;;5071498;28;20298;-78
2022/02/17 10:45:34;;;;;;;5.27;1.60;;;23.30;72.90;;;;;;5075317;28;20543;-76
2022/02/17 10:48:24;;;;;;;4.00;1.63;;;23.30;73.90;;;;;;5074744;28;20206;-75
2022/02/17 10:51:07;;;;;;;14.67;2.40;;;23.30;75.20;;;;;;5074250;28;20205;-74
2022/02/17 10:53:40;;;;;;;9.90;3.00;;;23.30;77.10;;;;;;5073619;28;20210;-75
2022/02/17 10:56:09;;;;;;;17.93;5.03;;;23.30;78.90;;;;;;5062260;28;20298;-72
2022/02/17 10:58:48;;;;;;;21.00;4.93;;;23.50;80.40;;;;;;5071012;28;20179;-73
2022/02/17 11:01:18;;;;;;;20.97;4.60;;;23.50;81.00;;;;;;5070688;28;20183;-71
2022/02/17 11:03:49;;;;;;;21.60;4.63;;;23.50;81.80;;;;;;5073754;28;20179;-71
2022/02/17 11:06:18;;;;;;;22.70;5.77;;;23.50;82.50;;;;;;5072908;28;20183;-72
2022/02/17 11:08:47;;;;;;;31.47;6.10;;;23.50;83.40;;;;;;5073954;28;20186;-72
2022/02/17 11:11:15;;;;;;;32.13;6.33;;;23.50;84.90;;;;;;5071340;28;20186;-71
2022/02/17 11:13:47;;;;;;;25.10;6.67;;;23.40;85.40;;;;;;5073927;28;20594;-75
2022/02/17 11:16:17;;;;;;;34.37;8.87;;;23.40;86.60;;;;;;5074483;28;20181;-71
2022/02/17 11:18:45;;;;;;;35.33;7.13;;;23.40;86.70;;;;;;5073270;28;20176;-71
2022/02/17 11:21:16;;;;;;;33.87;8.00;;;23.50;86.90;;;;;;5073557;28;20167;-72
2022/02/17 11:23:45;;;;;;;33.17;8.93;;;23.50;86.60;;;;;;5062571;28;20230;-71
2022/02/17 11:26:28;;;;;;;46.33;9.03;;;23.60;87.10;;;;;;5073662;28;20179;-71
2022/02/17 11:28:56;;;;;;;31.13;8.30;;;23.70;86.90;;;;;;5066410;28;20266;-71
2022/02/17 11:31:24;;;;;;;38.63;8.77;;;23.70;87.00;;;;;;5073843;28;20175;-71
2022/02/17 11:34:02;;;;;;;38.83;7.70;;;23.80;86.90;;;;;;5073954;28;20206;-71
2022/02/17 11:36:30;;;;;;;40.00;8.30;;;23.80;87.00;;;;;;5073505;28;20262;-71
2022/02/17 11:39:06;;;;;;;30.33;7.87;;;23.80;87.60;;;;;;5073713;28;20183;-71
2022/02/17 11:41:36;;;;;;;43.97;8.70;;;23.80;87.50;;;;;;5073318;28;20692;-71
2022/02/17 11:44:10;;;;;;;36.87;9.17;;;23.80;87.30;;;;;;5074097;28;20187;-70
2022/02/17 11:46:44;;;;;;;37.07;9.23;;;23.70;87.30;;;;;;5071544;28;20172;-70
2022/02/17 11:49:30;;;;;;;50.13;15.40;;;23.70;88.30;;;;;;5073175;28;20168;-70
2022/02/17 11:52:17;;;;;;;44.70;12.90;;;23.70;88.40;;;;;;5073516;28;20179;-71
2022/02/17 11:55:24;;;;;;;37.27;8.20;;;23.70;88.00;;;;;;5072315;28;20179;-71
2022/02/17 11:57:52;;;;;;;34.00;9.10;;;23.70;88.50;;;;;;5072009;28;20178;-70
2022/02/17 12:00:28;;;;;;;32.07;8.67;;;23.70;88.30;;;;;;5073474;28;20638;-71
2022/02/17 12:02:57;;;;;;;38.57;8.20;;;23.70;88.10;;;;;;5073452;28;20214;-71
2022/02/17 12:05:25;;;;;;;42.47;9.20;;;23.80;88.50;;;;;;5073319;28;20180;-72
2022/02/17 12:08:12;;;;;;;38.97;8.33;;;23.80;88.30;;;;;;5073571;28;20232;-72
2022/02/17 12:10:39;;;;;;;31.73;8.47;;;23.70;87.90;;;;;;5071246;28;20180;-72
2022/02/17 12:13:09;;;;;;;44.67;8.80;;;23.70;88.40;;;;;;5072708;28;20266;-71
2022/02/17 12:15:45;;;;;;;41.90;9.17;;;23.70;88.30;;;;;;5070426;28;20179;-72
2022/02/17 12:18:12;;;;;;;33.77;9.00;;;23.60;89.00;;;;;;5072788;28;20178;-72
2022/02/17 12:20:39;;;;;;;41.40;11.37;;;23.60;88.90;;;;;;5073012;28;20309;-73
2022/02/17 12:23:08;;;;;;;35.30;9.53;;;23.60;89.20;;;;;;5072441;28;20242;-72
2022/02/17 12:25:37;;;;;;;50.03;10.60;;;23.60;89.10;;;;;;5072513;28;20307;-71
2022/02/17 12:28:06;;;;;;;44.87;10.17;;;23.50;88.80;;;;;;5072553;28;20179;-72
2022/02/17 12:30:34;;;;;;;42.97;9.67;;;23.50;89.20;;;;;;5069057;28;20192;-72
2022/02/17 12:33:17;;;;;;;36.53;9.20;;;23.50;89.30;;;;;;5072785;28;20179;-72
2022/02/17 12:36:02;;;;;;;41.20;9.47;;;23.40;89.00;;;;;;5062874;28;20179;-72
2022/02/17 12:38:32;;;;;;;42.60;9.63;;;23.40;89.30;;;;;;5071362;28;20175;-73
2022/02/17 12:41:01;;;;;;;43.17;10.20;;;23.40;89.20;;;;;;5068925;28;20179;-72
2022/02/17 12:43:40;;;;;;;41.07;9.17;;;23.30;89.30;;;;;;5071908;28;20906;-73
2022/02/17 12:46:15;;;;;;;46.27;10.10;;;23.20;89.50;;;;;;5071623;28;20189;-73
2022/02/17 12:48:42;;;;;;;38.70;9.90;;;23.20;90.00;;;;;;5067057;28;20214;-74
2022/02/17 12:51:10;;;;;;;44.60;10.13;;;23.00;89.90;;;;;;5061557;28;20196;-73
2022/02/17 12:53:48;;;;;;;42.03;10.27;;;23.00;90.10;;;;;;5070964;28;20230;-73
2022/02/17 12:56:25;;;;;;;37.80;9.63;;;23.00;90.40;;;;;;5069357;28;20273;-73
2022/02/17 12:58:53;;;;;;;39.47;10.77;;;23.00;90.40;;;;;;5068289;28;20190;-73